sensor_id;sensor_type;location;lat;lon;timestamp;pressure;altitude;pressure_sealevel;temperature
13219;BMP180;6674;49.152;11.918;2023-04-24T00:01:32;95024.09;;;11.77
13219;BMP180;6674;49.152;11.918;2023-04-24T00:03:59;95032.13;;;11.80
13219;BMP180;6674;49.152;11.918;2023-04-24T00:06:26;95041.22;;;11.83
13219;BMP180;6674;49.152;11.918;2023-04-24T00:08:58;95038.13;;;11.86
13219;BMP180;6674;49.152;11.918;2023-04-24T00:11:25;95039.16;;;11.85
13219;BMP180;6674;49.152;11.918;2023-04-24T00:13:53;95021.84;;;11.85
13219;BMP180;6674;49.152;11.918;2023-04-24T00:16:20;95029.66;;;11.90
13219;BMP180;6674;49.152;11.918;2023-04-24T00:18:46;95027.31;;;11.89
13219;BMP180;6674;49.152;11.918;2023-04-24T00:21:14;95021.38;;;11.88
13219;BMP180;6674;49.152;11.918;2023-04-24T00:23:41;95032.75;;;11.92
13219;BMP180;6674;49.152;11.918;2023-04-24T00:26:09;95029.16;;;11.93
13219;BMP180;6674;49.152;11.918;2023-04-24T00:28:35;95034.81;;;11.90
13219;BMP180;6674;49.152;11.918;2023-04-24T00:31:04;95021.66;;;11.92
13219;BMP180;6674;49.152;11.918;2023-04-24T00:33:30;95030.72;;;11.94
13219;BMP180;6674;49.152;11.918;2023-04-24T00:35:57;95028.69;;;11.96
13219;BMP180;6674;49.152;11.918;2023-04-24T00:38:24;95028.69;;;11.96
13219;BMP180;6674;49.152;11.918;2023-04-24T00:40:51;95033.31;;;11.94
13219;BMP180;6674;49.152;11.918;2023-04-24T00:43:19;95021.69;;;11.97
13219;BMP180;6674;49.152;11.918;2023-04-24T00:45:46;95026.09;;;11.96
13219;BMP180;6674;49.152;11.918;2023-04-24T00:48:14;95025.56;;;11.94
13219;BMP180;6674;49.152;11.918;2023-04-24T00:50:42;95027.91;;;11.96
13219;BMP180;6674;49.152;11.918;2023-04-24T00:53:08;95029.16;;;11.93
13219;BMP180;6674;49.152;11.918;2023-04-24T00:55:35;95032.75;;;11.92
13219;BMP180;6674;49.152;11.918;2023-04-24T00:58:03;95020.84;;;11.86
13219;BMP180;6674;49.152;11.918;2023-04-24T01:00:30;95026.50;;;11.83
13219;BMP180;6674;49.152;11.918;2023-04-24T01:02:59;95014.06;;;11.80
13219;BMP180;6674;49.152;11.918;2023-04-24T01:05:27;95010.47;;;11.81
13219;BMP180;6674;49.152;11.918;2023-04-24T01:07:54;95008.66;;;11.82
13219;BMP180;6674;49.152;11.918;2023-04-24T01:10:20;95014.06;;;11.80
13219;BMP180;6674;49.152;11.918;2023-04-24T01:12:47;95004.81;;;11.84
13219;BMP180;6674;49.152;11.918;2023-04-24T01:15:13;95016.88;;;11.79
13219;BMP180;6674;49.152;11.918;2023-04-24T01:17:40;95015.88;;;11.80
13219;BMP180;6674;49.152;11.918;2023-04-24T01:20:09;95019.22;;;11.80
13219;BMP180;6674;49.152;11.918;2023-04-24T01:22:38;95022.34;;;11.82
13219;BMP180;6674;49.152;11.918;2023-04-24T01:25:06;95014.53;;;11.77
13219;BMP180;6674;49.152;11.918;2023-04-24T01:27:33;95011.44;;;11.75
13219;BMP180;6674;49.152;11.918;2023-04-24T01:30:00;95020.19;;;11.74
13219;BMP180;6674;49.152;11.918;2023-04-24T01:32:27;95025.88;;;11.71
13219;BMP180;6674;49.152;11.918;2023-04-24T01:34:54;95022.69;;;11.64
13219;BMP180;6674;49.152;11.918;2023-04-24T01:37:21;95016.50;;;11.65
13219;BMP180;6674;49.152;11.918;2023-04-24T01:39:49;95007.97;;;11.65
13219;BMP180;6674;49.152;11.918;2023-04-24T01:42:16;95015.72;;;11.65
13219;BMP180;6674;49.152;11.918;2023-04-24T01:44:43;95004.66;;;11.69
13219;BMP180;6674;49.152;11.918;2023-04-24T01:47:10;95009.56;;;11.71
13219;BMP180;6674;49.152;11.918;2023-04-24T01:49:38;95011.38;;;11.70
13219;BMP180;6674;49.152;11.918;2023-04-24T01:52:05;95014.94;;;11.64
13219;BMP180;6674;49.152;11.918;2023-04-24T01:54:31;95020.59;;;11.62
13219;BMP180;6674;49.152;11.918;2023-04-24T01:56:59;95022.16;;;11.63
13219;BMP180;6674;49.152;11.918;2023-04-24T01:59:27;95005.25;;;11.50
13219;BMP180;6674;49.152;11.918;2023-04-24T02:01:55;95004.94;;;11.47
13219;BMP180;6674;49.152;11.918;2023-04-24T02:04:21;95007.28;;;11.48
13219;BMP180;6674;49.152;11.918;2023-04-24T02:06:48;95005.50;;;11.49
13219;BMP180;6674;49.152;11.918;2023-04-24T02:09:14;95000.81;;;11.46
13219;BMP180;6674;49.152;11.918;2023-04-24T02:11:41;95002.91;;;11.49
13219;BMP180;6674;49.152;11.918;2023-04-24T02:14:09;94999.34;;;11.55
13219;BMP180;6674;49.152;11.918;2023-04-24T02:16:36;95000.44;;;11.59
13219;BMP180;6674;49.152;11.918;2023-04-24T02:19:02;95001.78;;;11.66
13219;BMP180;6674;49.152;11.918;2023-04-24T02:21:29;94996.38;;;11.67
13219;BMP180;6674;49.152;11.918;2023-04-24T02:23:56;95000.03;;;11.71
13219;BMP180;6674;49.152;11.918;2023-04-24T02:26:23;94986.59;;;11.74
13219;BMP180;6674;49.152;11.918;2023-04-24T02:28:50;94992.34;;;11.76
13219;BMP180;6674;49.152;11.918;2023-04-24T02:31:18;94988.41;;;11.74
13219;BMP180;6674;49.152;11.918;2023-04-24T02:33:44;94989.75;;;11.76
13219;BMP180;6674;49.152;11.918;2023-04-24T02:36:11;94995.66;;;11.72
13219;BMP180;6674;49.152;11.918;2023-04-24T02:38:38;94993.59;;;11.74
13219;BMP180;6674;49.152;11.918;2023-04-24T02:41:05;94980.91;;;11.72
13219;BMP180;6674;49.152;11.918;2023-04-24T02:43:32;94980.88;;;11.67
13219;BMP180;6674;49.152;11.918;2023-04-24T02:45:59;94981.91;;;11.66
13219;BMP180;6674;49.152;11.918;2023-04-24T02:48:27;94976.44;;;11.63
13219;BMP180;6674;49.152;11.918;2023-04-24T02:50:53;94976.19;;;11.64
13219;BMP180;6674;49.152;11.918;2023-04-24T02:53:20;94973.56;;;11.60
13219;BMP180;6674;49.152;11.918;2023-04-24T02:55:48;94963.28;;;11.64
13219;BMP180;6674;49.152;11.918;2023-04-24T02:58:14;94963.28;;;11.64
13219;BMP180;6674;49.152;11.918;2023-04-24T03:00:41;94962.75;;;11.63
13219;BMP180;6674;49.152;11.918;2023-04-24T03:03:08;94966.66;;;11.65
13219;BMP180;6674;49.152;11.918;2023-04-24T03:05:36;94956.28;;;11.60
13219;BMP180;6674;49.152;11.918;2023-04-24T03:08:03;94961.13;;;11.57
13219;BMP180;6674;49.152;11.918;2023-04-24T03:10:30;94963.44;;;11.53
13219;BMP180;6674;49.152;11.918;2023-04-24T03:12:57;94968.34;;;11.55
13219;BMP180;6674;49.152;11.918;2023-04-24T03:15:24;94968.34;;;11.55
13219;BMP180;6674;49.152;11.918;2023-04-24T03:17:50;94968.34;;;11.55
13219;BMP180;6674;49.152;11.918;2023-04-24T03:20:17;94968.84;;;11.52
13219;BMP180;6674;49.152;11.918;2023-04-24T03:22:45;94965.25;;;11.53
13219;BMP180;6674;49.152;11.918;2023-04-24T03:25:12;94970.41;;;11.53
13219;BMP180;6674;49.152;11.918;2023-04-24T03:27:38;94957.50;;;11.53
13219;BMP180;6674;49.152;11.918;2023-04-24T03:30:06;94961.88;;;11.52
13219;BMP180;6674;49.152;11.918;2023-04-24T03:32:33;94955.41;;;11.50
13219;BMP180;6674;49.152;11.918;2023-04-24T03:35:00;94963.84;;;11.45
13219;BMP180;6674;49.152;11.918;2023-04-24T03:37:26;94965.03;;;11.33
13219;BMP180;6674;49.152;11.918;2023-04-24T03:39:54;94965.56;;;11.35
13219;BMP180;6674;49.152;11.918;2023-04-24T03:42:21;94962.09;;;11.24
13219;BMP180;6674;49.152;11.918;2023-04-24T03:44:48;94974.16;;;11.19
13219;BMP180;6674;49.152;11.918;2023-04-24T03:47:14;94968.34;;;11.07
13219;BMP180;6674;49.152;11.918;2023-04-24T03:49:41;94964.53;;;11.10
13219;BMP180;6674;49.152;11.918;2023-04-24T03:52:08;94976.38;;;11.11
13219;BMP180;6674;49.152;11.918;2023-04-24T03:54:34;94970.94;;;11.07
13219;BMP180;6674;49.152;11.918;2023-04-24T03:57:02;94978.44;;;11.09
13219;BMP180;6674;49.152;11.918;2023-04-24T03:59:30;94966.00;;;11.06
13219;BMP180;6674;49.152;11.918;2023-04-24T04:01:56;94970.69;;;11.09
13219;BMP180;6674;49.152;11.918;2023-04-24T04:04:23;94972.25;;;11.10
13219;BMP180;6674;49.152;11.918;2023-04-24T04:06:50;94969.97;;;11.13
13219;BMP180;6674;49.152;11.918;2023-04-24T04:09:17;94975.09;;;11.08
13219;BMP180;6674;49.152;11.918;2023-04-24T04:11:43;94971.00;;;11.12
13219;BMP180;6674;49.152;11.918;2023-04-24T04:14:12;94972.31;;;11.15
13219;BMP180;6674;49.152;11.918;2023-04-24T04:16:38;94969.47;;;11.16
13219;BMP180;6674;49.152;11.918;2023-04-24T04:19:05;94967.94;;;11.15
13219;BMP180;6674;49.152;11.918;2023-04-24T04:21:31;94966.34;;;11.14
13219;BMP180;6674;49.152;11.918;2023-04-24T04:23:58;94973.66;;;11.22
13219;BMP180;6674;49.152;11.918;2023-04-24T04:26:24;94969.28;;;11.22
13219;BMP180;6674;49.152;11.918;2023-04-24T04:28:52;94968.50;;;11.22
13219;BMP180;6674;49.152;11.918;2023-04-24T04:31:20;94963.78;;;11.14
13219;BMP180;6674;49.152;11.918;2023-04-24T04:33:48;94961.69;;;11.11
13219;BMP180;6674;49.152;11.918;2023-04-24T04:36:15;94962.28;;;11.18
13219;BMP180;6674;49.152;11.918;2023-04-24T04:38:43;94969.78;;;11.19
13219;BMP180;6674;49.152;11.918;2023-04-24T04:41:10;94970.22;;;11.12
13219;BMP180;6674;49.152;11.918;2023-04-24T04:43:37;94964.25;;;11.11
13219;BMP180;6674;49.152;11.918;2023-04-24T04:46:04;94959.59;;;11.08
13219;BMP180;6674;49.152;11.918;2023-04-24T04:48:34;94961.69;;;11.11
13219;BMP180;6674;49.152;11.918;2023-04-24T04:51:01;94966.78;;;11.06
13219;BMP180;6674;49.152;11.918;2023-04-24T04:53:27;94969.88;;;11.03
13219;BMP180;6674;49.152;11.918;2023-04-24T04:55:54;94970.94;;;11.07
13219;BMP180;6674;49.152;11.918;2023-04-24T04:58:21;94971.41;;;11.04
13219;BMP180;6674;49.152;11.918;2023-04-24T05:00:47;94983.00;;;11.02
13219;BMP180;6674;49.152;11.918;2023-04-24T05:03:14;94982.72;;;10.98
13219;BMP180;6674;49.152;11.918;2023-04-24T05:05:42;94979.88;;;11.00
13219;BMP180;6674;49.152;11.918;2023-04-24T05:08:09;94984.56;;;11.03
13219;BMP180;6674;49.152;11.918;2023-04-24T05:10:35;94979.69;;;11.06
13219;BMP180;6674;49.152;11.918;2023-04-24T05:13:02;94993.63;;;11.05
13219;BMP180;6674;49.152;11.918;2023-04-24T05:15:29;94995.66;;;11.03
13219;BMP180;6674;49.152;11.918;2023-04-24T05:17:56;94995.78;;;11.13
13219;BMP180;6674;49.152;11.918;2023-04-24T05:20:24;94990.91;;;11.17
13219;BMP180;6674;49.152;11.918;2023-04-24T05:22:52;94992.41;;;11.13
13219;BMP180;6674;49.152;11.918;2023-04-24T05:25:18;94996.25;;;11.10
13219;BMP180;6674;49.152;11.918;2023-04-24T05:27:45;95000.38;;;11.11
13219;BMP180;6674;49.152;11.918;2023-04-24T05:30:12;95004.53;;;11.12
13219;BMP180;6674;49.152;11.918;2023-04-24T05:32:39;95001.72;;;11.14
13219;BMP180;6674;49.152;11.918;2023-04-24T05:35:06;95008.75;;;11.18
13219;BMP180;6674;49.152;11.918;2023-04-24T05:37:33;95005.69;;;11.21
13219;BMP180;6674;49.152;11.918;2023-04-24T05:40:00;95008.75;;;11.18
13219;BMP180;6674;49.152;11.918;2023-04-24T05:42:29;95012.88;;;11.19
13219;BMP180;6674;49.152;11.918;2023-04-24T05:44:55;95016.59;;;11.28
13219;BMP180;6674;49.152;11.918;2023-04-24T05:47:22;95013.72;;;11.24
13219;BMP180;6674;49.152;11.918;2023-04-24T05:49:48;95012.63;;;11.20
13219;BMP180;6674;49.152;11.918;2023-04-24T05:52:15;95010.28;;;11.19
13219;BMP180;6674;49.152;11.918;2023-04-24T05:54:42;95011.13;;;11.24
13219;BMP180;6674;49.152;11.918;2023-04-24T05:57:10;95008.56;;;11.24
13219;BMP180;6674;49.152;11.918;2023-04-24T05:59:37;95011.50;;;11.33
13219;BMP180;6674;49.152;11.918;2023-04-24T06:02:04;95013.53;;;11.31
13219;BMP180;6674;49.152;11.918;2023-04-24T06:04:31;95014.59;;;11.35
13219;BMP180;6674;49.152;11.918;2023-04-24T06:06:58;95013.03;;;11.34
13219;BMP180;6674;49.152;11.918;2023-04-24T06:09:25;95011.00;;;11.36
13219;BMP180;6674;49.152;11.918;2023-04-24T06:11:52;95020.78;;;11.34
13219;BMP180;6674;49.152;11.918;2023-04-24T06:14:20;95002.22;;;11.37
13219;BMP180;6674;49.152;11.918;2023-04-24T06:16:47;95014.13;;;11.38
13219;BMP180;6674;49.152;11.918;2023-04-24T06:19:13;95023.63;;;11.32
13219;BMP180;6674;49.152;11.918;2023-04-24T06:21:40;95023.91;;;11.36
13219;BMP180;6674;49.152;11.918;2023-04-24T06:24:06;95021.09;;;11.37
13219;BMP180;6674;49.152;11.918;2023-04-24T06:26:33;95016.94;;;11.36
13219;BMP180;6674;49.152;11.918;2023-04-24T06:29:00;95023.69;;;11.37
13219;BMP180;6674;49.152;11.918;2023-04-24T06:31:28;95021.03;;;11.32
13219;BMP180;6674;49.152;11.918;2023-04-24T06:33:55;95019.34;;;11.43
13219;BMP180;6674;49.152;11.918;2023-04-24T06:36:21;95026.41;;;11.47
13219;BMP180;6674;49.152;11.918;2023-04-24T06:38:48;95018.19;;;11.34
13219;BMP180;6674;49.152;11.918;2023-04-24T06:41:15;95031.47;;;11.42
13219;BMP180;6674;49.152;11.918;2023-04-24T06:43:41;95013.78;;;11.51
13219;BMP180;6674;49.152;11.918;2023-04-24T06:46:08;95021.56;;;11.56
13219;BMP180;6674;49.152;11.918;2023-04-24T06:48:36;95021.19;;;11.68
13219;BMP180;6674;49.152;11.918;2023-04-24T06:51:03;95018.13;;;11.71
13219;BMP180;6674;49.152;11.918;2023-04-24T06:53:29;95027.88;;;11.69
13219;BMP180;6674;49.152;11.918;2023-04-24T06:55:56;95020.91;;;11.65
13219;BMP180;6674;49.152;11.918;2023-04-24T06:58:23;95025.13;;;11.76
13219;BMP180;6674;49.152;11.918;2023-04-24T07:00:50;95025.34;;;11.74
13219;BMP180;6674;49.152;11.918;2023-04-24T07:03:16;95024.88;;;11.77
13219;BMP180;6674;49.152;11.918;2023-04-24T07:05:44;95016.69;;;11.85
13219;BMP180;6674;49.152;11.918;2023-04-24T07:08:11;95016.69;;;11.85
13219;BMP180;6674;49.152;11.918;2023-04-24T07:10:38;95020.59;;;11.88
13219;BMP180;6674;49.152;11.918;2023-04-24T07:13:05;95017.38;;;12.02
13219;BMP180;6674;49.152;11.918;2023-04-24T07:15:32;95026.34;;;11.95
13219;BMP180;6674;49.152;11.918;2023-04-24T07:17:59;95029.78;;;12.05
13219;BMP180;6674;49.152;11.918;2023-04-24T07:20:26;95025.13;;;12.02
13219;BMP180;6674;49.152;11.918;2023-04-24T07:22:54;95037.56;;;12.10
13219;BMP180;6674;49.152;11.918;2023-04-24T07:25:21;95040.47;;;12.13
13219;BMP180;6674;49.152;11.918;2023-04-24T07:27:48;95033.03;;;12.22
13219;BMP180;6674;49.152;11.918;2023-04-24T07:30:15;95032.19;;;12.16
13219;BMP180;6674;49.152;11.918;2023-04-24T07:32:42;95037.13;;;12.18
13219;BMP180;6674;49.152;11.918;2023-04-24T07:35:09;95034.81;;;12.21
13219;BMP180;6674;49.152;11.918;2023-04-24T07:37:36;95033.59;;;12.29
13219;BMP180;6674;49.152;11.918;2023-04-24T07:40:05;95028.53;;;12.44
13219;BMP180;6674;49.152;11.918;2023-04-24T07:42:31;95035.78;;;12.47
13219;BMP180;6674;49.152;11.918;2023-04-24T07:44:59;95032.69;;;12.45
13219;BMP180;6674;49.152;11.918;2023-04-24T07:47:26;95046.69;;;12.53
13219;BMP180;6674;49.152;11.918;2023-04-24T07:49:53;95050.41;;;12.62
13219;BMP180;6674;49.152;11.918;2023-04-24T07:52:19;95045.25;;;12.67
13219;BMP180;6674;49.152;11.918;2023-04-24T07:54:46;95048.13;;;12.71
13219;BMP180;6674;49.152;11.918;2023-04-24T07:57:14;95043.81;;;12.81
13219;BMP180;6674;49.152;11.918;2023-04-24T07:59:41;95059.22;;;12.71
13219;BMP180;6674;49.152;11.918;2023-04-24T08:02:07;95060.78;;;12.67
13219;BMP180;6674;49.152;11.918;2023-04-24T08:04:35;95058.97;;;12.68
13219;BMP180;6674;49.152;11.918;2023-04-24T08:07:01;95061.03;;;12.66
13219;BMP180;6674;49.152;11.918;2023-04-24T08:09:28;95054.84;;;12.72
13219;BMP180;6674;49.152;11.918;2023-04-24T08:11:55;95069.97;;;12.53
13219;BMP180;6674;49.152;11.918;2023-04-24T08:14:23;95084.47;;;12.54
13219;BMP180;6674;49.152;11.918;2023-04-24T08:16:49;95112.66;;;11.99
13219;BMP180;6674;49.152;11.918;2023-04-24T08:19:16;95100.72;;;11.66
13219;BMP180;6674;49.152;11.918;2023-04-24T08:21:42;95098.78;;;11.36
13219;BMP180;6674;49.152;11.918;2023-04-24T08:24:09;95097.53;;;11.60
13219;BMP180;6674;49.152;11.918;2023-04-24T08:26:36;95089.78;;;11.60
13219;BMP180;6674;49.152;11.918;2023-04-24T08:29:02;95094.75;;;11.66
13219;BMP180;6674;49.152;11.918;2023-04-24T08:31:30;95090.25;;;11.78
13219;BMP180;6674;49.152;11.918;2023-04-24T08:33:57;95089.66;;;11.71
13219;BMP180;6674;49.152;11.918;2023-04-24T08:36:25;95097.22;;;11.77
13219;BMP180;6674;49.152;11.918;2023-04-24T08:38:51;95098.72;;;12.00
13219;BMP180;6674;49.152;11.918;2023-04-24T08:41:18;95093.84;;;12.03
13219;BMP180;6674;49.152;11.918;2023-04-24T08:43:46;95096.25;;;12.09
13219;BMP180;6674;49.152;11.918;2023-04-24T08:46:13;95099.69;;;12.20
13219;BMP180;6674;49.152;11.918;2023-04-24T08:49:02;95086.13;;;12.34
13219;BMP180;6674;49.152;11.918;2023-04-24T08:51:31;95110.00;;;12.41
13219;BMP180;6674;49.152;11.918;2023-04-24T08:53:57;95107.72;;;12.49
13219;BMP180;6674;49.152;11.918;2023-04-24T08:56:24;95102.75;;;12.43
13219;BMP180;6674;49.152;11.918;2023-04-24T08:58:53;95105.22;;;12.59
13219;BMP180;6674;49.152;11.918;2023-04-24T09:01:20;95125.38;;;12.57
13219;BMP180;6674;49.152;11.918;2023-04-24T09:03:48;95111.72;;;12.36
13219;BMP180;6674;49.152;11.918;2023-04-24T09:06:17;95122.34;;;12.39
13219;BMP180;6674;49.152;11.918;2023-04-24T09:08:45;95116.78;;;12.52
13219;BMP180;6674;49.152;11.918;2023-04-24T09:11:12;95117.91;;;12.30
13219;BMP180;6674;49.152;11.918;2023-04-24T09:13:39;95113.22;;;12.27
13219;BMP180;6674;49.152;11.918;2023-04-24T09:16:05;95100.72;;;12.19
13219;BMP180;6674;49.152;11.918;2023-04-24T09:18:32;95110.50;;;12.12
13219;BMP180;6674;49.152;11.918;2023-04-24T09:21:01;95113.00;;;12.02
13219;BMP180;6674;49.152;11.918;2023-04-24T09:23:30;95100.34;;;12.06
13219;BMP180;6674;49.152;11.918;2023-04-24T09:25:59;95103.50;;;12.12
13219;BMP180;6674;49.152;11.918;2023-04-24T09:28:29;95096.13;;;12.26
13219;BMP180;6674;49.152;11.918;2023-04-24T09:31:06;95106.34;;;12.42
13219;BMP180;6674;49.152;11.918;2023-04-24T09:33:34;95124.13;;;12.34
13219;BMP180;6674;49.152;11.918;2023-04-24T09:36:01;95122.41;;;12.44
13219;BMP180;6674;49.152;11.918;2023-04-24T09:38:33;95124.16;;;12.39
13219;BMP180;6674;49.152;11.918;2023-04-24T09:41:01;95110.63;;;12.58
13219;BMP180;6674;49.152;11.918;2023-04-24T09:43:29;95128.53;;;12.64
13219;BMP180;6674;49.152;11.918;2023-04-24T09:45:58;95126.31;;;12.47
13219;BMP180;6674;49.152;11.918;2023-04-24T09:48:30;95121.88;;;12.42
13219;BMP180;6674;49.152;11.918;2023-04-24T09:50:57;95127.13;;;12.21
13219;BMP180;6674;49.152;11.918;2023-04-24T09:53:25;95127.72;;;12.33
13219;BMP180;6674;49.152;11.918;2023-04-24T09:55:53;95139.91;;;12.06
13219;BMP180;6674;49.152;11.918;2023-04-24T09:58:25;95137.50;;;12.00
13219;BMP180;6674;49.152;11.918;2023-04-24T10:00:53;95131.66;;;12.09
13219;BMP180;6674;49.152;11.918;2023-04-24T10:03:20;95141.53;;;11.69
13219;BMP180;6674;49.152;11.918;2023-04-24T10:05:47;95135.06;;;11.88
13219;BMP180;6674;49.152;11.918;2023-04-24T10:08:13;95139.50;;;11.93
13219;BMP180;6674;49.152;11.918;2023-04-24T10:10:42;95144.09;;;11.91
13219;BMP180;6674;49.152;11.918;2023-04-24T10:13:11;95148.94;;;12.08
13219;BMP180;6674;49.152;11.918;2023-04-24T10:15:40;95162.16;;;12.33
13219;BMP180;6674;49.152;11.918;2023-04-24T10:18:08;95160.66;;;12.42
13219;BMP180;6674;49.152;11.918;2023-04-24T10:20:37;95162.78;;;12.19
13219;BMP180;6674;49.152;11.918;2023-04-24T10:23:04;95146.22;;;12.46
13219;BMP180;6674;49.152;11.918;2023-04-24T10:25:34;95153.47;;;12.49
13219;BMP180;6674;49.152;11.918;2023-04-24T10:28:01;95158.28;;;12.36
13219;BMP180;6674;49.152;11.918;2023-04-24T10:30:31;95148.25;;;12.44
13219;BMP180;6674;49.152;11.918;2023-04-24T10:33:00;95144.38;;;12.42
13219;BMP180;6674;49.152;11.918;2023-04-24T10:35:30;95153.75;;;12.48
13219;BMP180;6674;49.152;11.918;2023-04-24T10:38:00;95156.41;;;12.57
13219;BMP180;6674;49.152;11.918;2023-04-24T10:40:30;95151.44;;;12.51
13219;BMP180;6674;49.152;11.918;2023-04-24T10:42:57;95144.00;;;12.59
13219;BMP180;6674;49.152;11.918;2023-04-24T10:45:25;95137.13;;;12.75
13219;BMP180;6674;49.152;11.918;2023-04-24T10:47:56;95140.88;;;12.84
13219;BMP180;6674;49.152;11.918;2023-04-24T10:50:26;95145.34;;;12.93
13219;BMP180;6674;49.152;11.918;2023-04-24T10:52:55;95149.75;;;12.97
13219;BMP180;6674;49.152;11.918;2023-04-24T10:55:42;95139.84;;;12.90
13219;BMP180;6674;49.152;11.918;2023-04-24T10:58:10;95132.44;;;12.98
13219;BMP180;6674;49.152;11.918;2023-04-24T11:00:37;95139.50;;;13.12
13219;BMP180;6674;49.152;11.918;2023-04-24T11:03:06;95148.03;;;13.08
13219;BMP180;6674;49.152;11.918;2023-04-24T11:05:58;95148.28;;;13.06
13219;BMP180;6674;49.152;11.918;2023-04-24T11:08:28;95166.97;;;13.18
13219;BMP180;6674;49.152;11.918;2023-04-24T11:10:57;95148.47;;;12.95
13219;BMP180;6674;49.152;11.918;2023-04-24T11:13:24;95148.38;;;12.85
13219;BMP180;6674;49.152;11.918;2023-04-24T11:16:14;95153.50;;;12.80
13219;BMP180;6674;49.152;11.918;2023-04-24T11:18:43;95161.78;;;12.51
13219;BMP180;6674;49.152;11.918;2023-04-24T11:21:16;95160.91;;;12.41
13219;BMP180;6674;49.152;11.918;2023-04-24T11:23:44;95151.00;;;12.33
13219;BMP180;6674;49.152;11.918;2023-04-24T11:26:13;95159.16;;;12.20
13219;BMP180;6674;49.152;11.918;2023-04-24T11:28:46;95164.94;;;12.27
13219;BMP180;6674;49.152;11.918;2023-04-24T11:31:36;95171.63;;;12.28
13219;BMP180;6674;49.152;11.918;2023-04-24T11:34:12;95181.97;;;12.28
13219;BMP180;6674;49.152;11.918;2023-04-24T11:36:40;95170.28;;;12.20
13219;BMP180;6674;49.152;11.918;2023-04-24T11:39:07;95171.53;;;12.18
13219;BMP180;6674;49.152;11.918;2023-04-24T11:41:34;95163.25;;;12.16
13219;BMP180;6674;49.152;11.918;2023-04-24T11:44:02;95172.16;;;12.25
13219;BMP180;6674;49.152;11.918;2023-04-24T11:46:30;95163.34;;;12.26
13219;BMP180;6674;49.152;11.918;2023-04-24T11:48:58;95148.00;;;12.46
13219;BMP180;6674;49.152;11.918;2023-04-24T11:51:27;95150.25;;;12.63
13219;BMP180;6674;49.152;11.918;2023-04-24T11:53:55;95150.72;;;12.60
13219;BMP180;6674;49.152;11.918;2023-04-24T11:56:25;95139.22;;;13.09
13219;BMP180;6674;49.152;11.918;2023-04-24T11:58:52;95147.44;;;13.37
13219;BMP180;6674;49.152;11.918;2023-04-24T12:01:19;95153.41;;;13.42
13219;BMP180;6674;49.152;11.918;2023-04-24T12:03:48;95154.81;;;13.70
13219;BMP180;6674;49.152;11.918;2023-04-24T12:06:16;95145.53;;;13.78
13219;BMP180;6674;49.152;11.918;2023-04-24T12:08:46;95165.38;;;13.53
13219;BMP180;6674;49.152;11.918;2023-04-24T12:11:15;95151.34;;;13.49
13219;BMP180;6674;49.152;11.918;2023-04-24T12:13:44;95156.47;;;13.90
13219;BMP180;6674;49.152;11.918;2023-04-24T12:16:12;95157.84;;;14.13
13219;BMP180;6674;49.152;11.918;2023-04-24T12:18:43;95135.59;;;14.31
13219;BMP180;6674;49.152;11.918;2023-04-24T12:21:20;95132.28;;;13.75
13219;BMP180;6674;49.152;11.918;2023-04-24T12:23:49;95135.56;;;14.22
13219;BMP180;6674;49.152;11.918;2023-04-24T12:26:16;95141.25;;;14.04
13219;BMP180;6674;49.152;11.918;2023-04-24T12:28:46;95164.97;;;13.81
13219;BMP180;6674;49.152;11.918;2023-04-24T12:31:13;95155.38;;;13.81
13219;BMP180;6674;49.152;11.918;2023-04-24T12:33:40;95148.13;;;13.83
13219;BMP180;6674;49.152;11.918;2023-04-24T12:36:10;95157.41;;;13.70
13219;BMP180;6674;49.152;11.918;2023-04-24T12:38:37;95158.22;;;13.75
13219;BMP180;6674;49.152;11.918;2023-04-24T12:41:09;95174.03;;;13.83
13219;BMP180;6674;49.152;11.918;2023-04-24T12:43:36;95159.16;;;13.54
13219;BMP180;6674;49.152;11.918;2023-04-24T12:46:04;95181.38;;;13.40
13219;BMP180;6674;49.152;11.918;2023-04-24T12:48:31;95173.59;;;13.40
13219;BMP180;6674;49.152;11.918;2023-04-24T12:50:58;95186.19;;;13.22
13219;BMP180;6674;49.152;11.918;2023-04-24T12:53:27;95177.88;;;12.84
13219;BMP180;6674;49.152;11.918;2023-04-24T12:55:55;95196.06;;;12.94
13219;BMP180;6674;49.152;11.918;2023-04-24T12:58:23;95192.69;;;12.93
13219;BMP180;6674;49.152;11.918;2023-04-24T13:00:50;95191.69;;;12.68
13219;BMP180;6674;49.152;11.918;2023-04-24T13:03:17;95197.06;;;12.88
13219;BMP180;6674;49.152;11.918;2023-04-24T13:05:44;95190.47;;;12.76
13219;BMP180;6674;49.152;11.918;2023-04-24T13:08:11;95199.66;;;12.88
13219;BMP180;6674;49.152;11.918;2023-04-24T13:10:38;95201.88;;;12.80
13219;BMP180;6674;49.152;11.918;2023-04-24T13:13:05;95197.50;;;12.80
13219;BMP180;6674;49.152;11.918;2023-04-24T13:15:34;95208.19;;;12.62
13219;BMP180;6674;49.152;11.918;2023-04-24T13:18:00;95223.34;;;12.54
13219;BMP180;6674;49.152;11.918;2023-04-24T13:20:27;95223.63;;;12.31
13219;BMP180;6674;49.152;11.918;2023-04-24T13:22:54;95193.31;;;12.22
13219;BMP180;6674;49.152;11.918;2023-04-24T13:25:21;95215.06;;;12.26
13219;BMP180;6674;49.152;11.918;2023-04-24T13:27:48;95209.59;;;12.22
13219;BMP180;6674;49.152;11.918;2023-04-24T13:30:16;95209.94;;;12.31
13219;BMP180;6674;49.152;11.918;2023-04-24T13:32:44;95194.91;;;12.28
13219;BMP180;6674;49.152;11.918;2023-04-24T13:35:11;95192.22;;;12.44
13219;BMP180;6674;49.152;11.918;2023-04-24T13:37:37;95201.50;;;12.66
13219;BMP180;6674;49.152;11.918;2023-04-24T13:40:05;95199.59;;;12.83
13219;BMP180;6674;49.152;11.918;2023-04-24T13:42:32;95204.38;;;13.01
13219;BMP180;6674;49.152;11.918;2023-04-24T13:44:59;95198.72;;;13.04
13219;BMP180;6674;49.152;11.918;2023-04-24T13:47:25;95202.81;;;12.95
13219;BMP180;6674;49.152;11.918;2023-04-24T13:49:53;95192.97;;;12.66
13219;BMP180;6674;49.152;11.918;2023-04-24T13:52:20;95193.75;;;12.40
13219;BMP180;6674;49.152;11.918;2023-04-24T13:54:47;95199.63;;;12.62
13219;BMP180;6674;49.152;11.918;2023-04-24T13:57:14;95215.56;;;12.49
13219;BMP180;6674;49.152;11.918;2023-04-24T13:59:41;95220.09;;;12.37
13219;BMP180;6674;49.152;11.918;2023-04-24T14:02:08;95219.56;;;12.35
13219;BMP180;6674;49.152;11.918;2023-04-24T14:04:35;95211.41;;;12.22
13219;BMP180;6674;49.152;11.918;2023-04-24T14:07:04;95212.56;;;12.36
13219;BMP180;6674;49.152;11.918;2023-04-24T14:09:31;95209.50;;;12.39
13219;BMP180;6674;49.152;11.918;2023-04-24T14:12:00;95226.41;;;12.46